sensor_id;sensor_type;location;lat;lon;timestamp;P1;durP1;ratioP1;P2;durP2;ratioP2
23684;SDS011;12020;51.384;6.908;2023-05-18T04:37:34;9.27;;;5.73;;
23684;SDS011;12020;51.384;6.908;2023-05-18T04:40:02;13.17;;;6.40;;
23684;SDS011;12020;51.384;6.908;2023-05-18T04:42:42;10.40;;;6.73;;
23684;SDS011;12020;51.384;6.908;2023-05-18T04:45:16;9.20;;;6.60;;
23684;SDS011;12020;51.384;6.908;2023-05-18T04:47:45;16.03;;;7.00;;
23684;SDS011;12020;51.384;6.908;2023-05-18T04:50:16;11.90;;;6.83;;
23684;SDS011;12020;51.384;6.908;2023-05-18T04:52:47;14.20;;;6.67;;
23684;SDS011;12020;51.384;6.908;2023-05-18T04:55:16;16.57;;;7.77;;
23684;SDS011;12020;51.384;6.908;2023-05-18T04:57:51;9.83;;;6.47;;
23684;SDS011;12020;51.384;6.908;2023-05-18T05:00:21;13.10;;;6.17;;
23684;SDS011;12020;51.384;6.908;2023-05-18T05:02:50;10.43;;;6.13;;
23684;SDS011;12020;51.384;6.908;2023-05-18T05:05:17;11.90;;;6.33;;
23684;SDS011;12020;51.384;6.908;2023-05-18T05:07:43;14.00;;;6.83;;
23684;SDS011;12020;51.384;6.908;2023-05-18T05:10:25;13.93;;;6.63;;
23684;SDS011;12020;51.384;6.908;2023-05-18T05:12:54;9.67;;;6.73;;
23684;SDS011;12020;51.384;6.908;2023-05-18T05:17:54;12.10;;;6.00;;
23684;SDS011;12020;51.384;6.908;2023-05-18T05:20:21;11.83;;;7.00;;
23684;SDS011;12020;51.384;6.908;2023-05-18T05:22:47;10.73;;;6.27;;
23684;SDS011;12020;51.384;6.908;2023-05-18T05:25:17;11.03;;;5.40;;
23684;SDS011;12020;51.384;6.908;2023-05-18T05:27:56;10.00;;;6.50;;
23684;SDS011;12020;51.384;6.908;2023-05-18T05:30:22;9.60;;;6.27;;
23684;SDS011;12020;51.384;6.908;2023-05-18T05:35:17;10.43;;;5.93;;
23684;SDS011;12020;51.384;6.908;2023-05-18T05:37:43;11.17;;;5.53;;
23684;SDS011;12020;51.384;6.908;2023-05-18T05:40:18;9.47;;;5.67;;
23684;SDS011;12020;51.384;6.908;2023-05-18T05:42:49;9.37;;;5.70;;
23684;SDS011;12020;51.384;6.908;2023-05-18T05:47:54;11.30;;;6.40;;
23684;SDS011;12020;51.384;6.908;2023-05-18T05:50:21;10.20;;;5.13;;
23684;SDS011;12020;51.384;6.908;2023-05-18T05:52:57;10.00;;;5.93;;
23684;SDS011;12020;51.384;6.908;2023-05-18T05:55:25;9.97;;;5.33;;
23684;SDS011;12020;51.384;6.908;2023-05-18T05:57:53;8.83;;;5.93;;
23684;SDS011;12020;51.384;6.908;2023-05-18T06:00:24;8.33;;;5.43;;
23684;SDS011;12020;51.384;6.908;2023-05-18T06:05:27;8.60;;;5.30;;
23684;SDS011;12020;51.384;6.908;2023-05-18T06:07:57;8.33;;;5.50;;
23684;SDS011;12020;51.384;6.908;2023-05-18T06:10:29;11.23;;;5.37;;
23684;SDS011;12020;51.384;6.908;2023-05-18T06:13:01;8.70;;;5.90;;
23684;SDS011;12020;51.384;6.908;2023-05-18T06:15:37;8.77;;;5.30;;
23684;SDS011;12020;51.384;6.908;2023-05-18T06:18:15;10.03;;;5.63;;
23684;SDS011;12020;51.384;6.908;2023-05-18T06:20:49;10.80;;;5.47;;
23684;SDS011;12020;51.384;6.908;2023-05-18T06:23:15;10.80;;;5.27;;
23684;SDS011;12020;51.384;6.908;2023-05-18T06:25:47;7.17;;;4.93;;
23684;SDS011;12020;51.384;6.908;2023-05-18T06:28:15;10.10;;;4.70;;
23684;SDS011;12020;51.384;6.908;2023-05-18T06:30:45;8.23;;;5.43;;
23684;SDS011;12020;51.384;6.908;2023-05-18T06:33:13;9.60;;;4.93;;
23684;SDS011;12020;51.384;6.908;2023-05-18T06:35:39;12.27;;;5.23;;
23684;SDS011;12020;51.384;6.908;2023-05-18T06:38:06;10.53;;;5.43;;
23684;SDS011;12020;51.384;6.908;2023-05-18T06:40:35;10.23;;;5.30;;
23684;SDS011;12020;51.384;6.908;2023-05-18T06:43:11;7.50;;;4.80;;
23684;SDS011;12020;51.384;6.908;2023-05-18T06:45:38;9.83;;;5.20;;
23684;SDS011;12020;51.384;6.908;2023-05-18T06:48:04;8.60;;;4.93;;
23684;SDS011;12020;51.384;6.908;2023-05-18T06:50:30;12.20;;;6.03;;
23684;SDS011;12020;51.384;6.908;2023-05-18T06:53:03;8.73;;;4.90;;
23684;SDS011;12020;51.384;6.908;2023-05-18T06:55:35;8.83;;;5.47;;
23684;SDS011;12020;51.384;6.908;2023-05-18T06:58:05;8.10;;;4.50;;
23684;SDS011;12020;51.384;6.908;2023-05-18T07:00:39;9.33;;;4.67;;
23684;SDS011;12020;51.384;6.908;2023-05-18T07:03:06;11.13;;;5.40;;
23684;SDS011;12020;51.384;6.908;2023-05-18T07:05:32;7.60;;;4.68;;
23684;SDS011;12020;51.384;6.908;2023-05-18T07:08:00;8.57;;;5.00;;
23684;SDS011;12020;51.384;6.908;2023-05-18T07:10:28;9.02;;;4.78;;
23684;SDS011;12020;51.384;6.908;2023-05-18T07:13:08;8.50;;;5.10;;
23684;SDS011;12020;51.384;6.908;2023-05-18T07:18:05;8.82;;;4.47;;
23684;SDS011;12020;51.384;6.908;2023-05-18T07:20:32;6.90;;;3.97;;
23684;SDS011;12020;51.384;6.908;2023-05-18T07:22:57;8.77;;;4.07;;
23684;SDS011;12020;51.384;6.908;2023-05-18T07:25:24;9.57;;;4.40;;
23684;SDS011;12020;51.384;6.908;2023-05-18T07:27:51;8.03;;;3.87;;
23684;SDS011;12020;51.384;6.908;2023-05-18T07:30:20;8.37;;;4.40;;
23684;SDS011;12020;51.384;6.908;2023-05-18T07:35:15;7.73;;;4.43;;
23684;SDS011;12020;51.384;6.908;2023-05-18T07:37:57;10.27;;;4.30;;
23684;SDS011;12020;51.384;6.908;2023-05-18T07:40:30;9.93;;;4.37;;
23684;SDS011;12020;51.384;6.908;2023-05-18T07:42:58;8.93;;;4.27;;
